This is the latest recevied weather packets stored in our database for station/object SP2JGY-2. If no packets are shown the sender has not sent any weather packets the latest 10 day(s).
| Time | Temp. | Humidity | Pressure | Rain* | Wind** | Luminosity | Snow |
|---|---|---|---|---|---|---|---|
| 1777159387 | 3.33° C | 89% | 1010.4 hPa | - | - | - | - |
| 1777158487 | 3.33° C | 89% | 1010 hPa | - | - | - | - |
| 1777157587 | 3.33° C | 89% | 1009.7 hPa | - | - | - | - |
| 1777156686 | 3.33° C | 89% | 1009.4 hPa | - | - | - | - |
| 1777155786 | 3.33° C | 89% | 1009.2 hPa | - | - | - | - |
| 1777154886 | 13.89° C | 75% | 1008.4 hPa | - | - | - | - |
| 1777153986 | 5.56° C | 88% | 1008 hPa | - | - | - | - |
| 1777153086 | 3.89° C | 89% | 1007.4 hPa | - | - | - | - |
| 1777152186 | 5° C | 82% | 1006.5 hPa | - | - | - | - |
| 1777151285 | 5° C | 84% | 1006.3 hPa | - | - | - | - |
| 1777150385 | 5° C | 86% | 1006.1 hPa | - | - | - | - |
| 1777148585 | 5° C | 89% | 1006.1 hPa | - | - | - | - |
| 1777146785 | 7.78° C | 69% | 1005.6 hPa | - | - | - | - |
| 1777145884 | 7.78° C | 68% | 1005.7 hPa | - | - | - | - |
| 1777144984 | 8.33° C | 68% | 1005.9 hPa | - | - | - | - |
| 1777144084 | 8.33° C | 69% | 1005.5 hPa | - | - | - | - |
| 1777143184 | 7.78° C | 69% | 1005.9 hPa | - | - | - | - |
| 1777142284 | 7.78° C | 71% | 1006.2 hPa | - | - | - | - |
| 1777141384 | 7.78° C | 69% | 1006.3 hPa | - | - | - | - |
| 1777140483 | 7.78° C | 69% | 1006.5 hPa | - | - | - | - |
| 1777139583 | 7.78° C | 71% | 1006.6 hPa | - | - | - | - |
| 1777138683 | 7.78° C | 72% | 1007 hPa | - | - | - | - |
| 1777137783 | 7.22° C | 74% | 1007.1 hPa | - | - | - | - |
| 1777136883 | 8.33° C | 67% | 1007 hPa | - | - | - | - |
| 1777135983 | 8.33° C | 65% | 1007 hPa | - | - | - | - |
* Rain since midnight (hover to see other rain measurements)
** Current wind speed in m/s (hover to see current wind gust speed)